Time;durP1;ratioP1;P1;durP2;ratioP2;P2;SDS_P1;SDS_P2;PMS_P1;PMS_P2;Temp;Humidity;BMP_temperature;BMP_pressure;BME280_temperature;BME280_humidity;BME280_pressure;Samples;Min_cycle;Max_cycle;Signal;HPM_P1;HPM_P2
2024/03/21 00:00:57;;;;;;;;;;;;;;;20.84;27.39;98233.81;5038456;28;1132;-78
2024/03/21 00:03:23;;;;;;;;;;;;;;;20.99;26.78;98220.97;5036344;28;1122;-77
2024/03/21 00:05:48;;;;;;;;;;;;;;;20.89;27.12;98228.44;5037388;28;1388;-77
2024/03/21 00:08:14;;;;;;;;;;;;;;;20.95;27.08;98223.09;5037711;28;1906;-78
2024/03/21 00:10:39;;;;;;;;;;;;;;;20.71;27.16;98220.31;5020859;28;997;-78
2024/03/21 00:13:05;;;;;;;;;;;;;;;20.77;27.14;98212.91;5036888;28;888;-78
2024/03/21 00:15:30;;;;;;;;;;;;;;;20.71;27.24;98214.66;5020804;28;1447;-78
2024/03/21 00:17:56;;;;;;;;;;;;;;;20.27;28.05;98208.19;5020627;28;1068;-77
2024/03/21 00:20:22;;;;;;;;;;;;;;;20.72;27.57;98209.78;5002770;28;957;-77
2024/03/21 00:22:47;;;;;;;;;;;;;;;20.59;27.47;98195.50;5038177;28;964;-78
2024/03/21 00:25:13;;;;;;;;;;;;;;;20.72;27.34;98193.63;5020507;28;1184;-78
2024/03/21 00:27:39;;;;;;;;;;;;;;;20.81;27.34;98196.66;5020010;28;1906;-78
2024/03/21 00:30:05;;;;;;;;;;;;;;;20.63;27.32;98190.59;5036501;28;1119;-77
2024/03/21 00:32:30;;;;;;;;;;;;;;;20.46;27.90;98191.69;5038525;28;977;-78
2024/03/21 00:34:57;;;;;;;;;;;;;;;20.65;27.45;98181.66;5036691;28;1064;-76
2024/03/21 00:37:24;;;;;;;;;;;;;;;20.68;27.73;98180.81;5038194;28;1425;-77
2024/03/21 00:39:50;;;;;;;;;;;;;;;21.04;27.15;98175.22;5036533;28;922;-77
2024/03/21 00:42:15;;;;;;;;;;;;;;;20.84;27.22;98172.41;5013360;28;1081;-76
2024/03/21 00:44:41;;;;;;;;;;;;;;;20.68;27.57;98178.78;4980285;28;1055;-77
2024/03/21 00:47:07;;;;;;;;;;;;;;;20.59;27.38;98178.53;4979973;28;1298;-78
2024/03/21 00:49:33;;;;;;;;;;;;;;;20.61;27.24;98181.72;4996174;28;1907;-78
2024/03/21 00:51:58;;;;;;;;;;;;;;;19.92;28.22;98180.56;4980856;28;909;-78
2024/03/21 00:54:25;;;;;;;;;;;;;;;20.63;27.39;98170.00;4997503;28;969;-78
2024/03/21 00:56:50;;;;;;;;;;;;;;;20.81;27.25;98162.72;4967688;28;1308;-76
2024/03/21 00:59:16;;;;;;;;;;;;;;;21.09;26.88;98166.22;4999457;28;1376;-78
2024/03/21 01:01:42;;;;;;;;;;;;;;;20.84;27.43;98154.63;5000913;28;973;-77
2024/03/21 01:04:07;;;;;;;;;;;;;;;20.77;27.22;98159.19;4999997;28;1150;-78
2024/03/21 01:06:33;;;;;;;;;;;;;;;20.84;27.12;98154.63;4974775;28;1291;-78
2024/03/21 01:08:59;;;;;;;;;;;;;;;20.59;27.38;98149.47;4994033;28;1970;-77
2024/03/21 01:11:24;;;;;;;;;;;;;;;20.62;27.73;98143.72;4964703;28;1064;-78
2024/03/21 01:13:50;;;;;;;;;;;;;;;20.74;27.34;98145.94;4992651;28;962;-77
2024/03/21 01:16:15;;;;;;;;;;;;;;;20.59;27.51;98144.63;5038855;28;1409;-77
2024/03/21 01:18:41;;;;;;;;;;;;;;;20.35;27.43;98078.06;5038877;28;969;-77
2024/03/21 01:21:08;;;;;;;;;;;;;;;20.66;27.62;98138.00;5039783;28;1009;-78
2024/03/21 01:23:33;;;;;;;;;;;;;;;20.42;27.80;98134.44;5012575;28;1025;-78
2024/03/21 01:25:59;;;;;;;;;;;;;;;20.66;27.42;98133.16;5002746;28;1454;-77
2024/03/21 01:28:24;;;;;;;;;;;;;;;20.79;27.25;98131.28;5001779;28;1906;-78
2024/03/21 01:30:50;;;;;;;;;;;;;;;20.89;27.43;98139.97;5030020;28;896;-77
2024/03/21 01:33:15;;;;;;;;;;;;;;;20.78;27.25;98132.53;5039370;28;915;-77
2024/03/21 01:35:41;;;;;;;;;;;;;;;20.43;27.82;98131.19;5039580;28;1348;-78
2024/03/21 01:38:06;;;;;;;;;;;;;;;20.18;27.94;98120.34;5039188;28;1646;-77
2024/03/21 01:40:32;;;;;;;;;;;;;;;20.75;27.38;98113.59;5024111;28;1119;-78
2024/03/21 01:42:57;;;;;;;;;;;;;;;20.89;27.48;98117.34;5039723;28;932;-78
2024/03/21 01:45:23;;;;;;;;;;;;;;;20.78;27.66;98112.72;5040715;28;966;-77
2024/03/21 01:47:49;;;;;;;;;;;;;;;20.68;27.50;98102.44;5022203;28;1907;-78
2024/03/21 01:50:14;;;;;;;;;;;;;;;20.76;27.86;98103.06;5003647;28;1088;-77
2024/03/21 01:52:40;;;;;;;;;;;;;;;20.53;27.70;98101.13;5021250;28;994;-77
2024/03/21 01:55:06;;;;;;;;;;;;;;;20.65;27.29;98103.28;5019167;28;1302;-76
2024/03/21 01:57:32;;;;;;;;;;;;;;;20.53;27.51;98096.28;5034825;28;1346;-78
2024/03/21 01:59:58;;;;;;;;;;;;;;;20.63;27.45;98105.78;4998803;28;1037;-77
2024/03/21 02:02:24;;;;;;;;;;;;;;;20.73;27.67;98098.31;5015503;28;1138;-78
2024/03/21 02:04:49;;;;;;;;;;;;;;;20.99;27.27;98090.84;4998278;28;1455;-77
2024/03/21 02:07:17;;;;;;;;;;;;;;;20.41;27.99;98081.97;4998465;28;1902;-77
2024/03/21 02:09:49;;;;;;;;;;;;;;;20.55;27.54;98087.34;4959700;29;1036;-77
2024/03/21 02:12:15;;;;;;;;;;;;;;;20.59;27.79;98092.94;4960229;28;1048;-77
2024/03/21 02:14:40;;;;;;;;;;;;;;;20.77;27.42;98082.03;4959463;29;1321;-77
2024/03/21 02:17:06;;;;;;;;;;;;;;;20.73;27.59;98070.81;4959228;28;1505;-77
2024/03/21 02:19:31;;;;;;;;;;;;;;;20.70;27.81;98080.16;4959930;29;1001;-77
2024/03/21 02:24:41;;;;;;;;;;;;;;;20.58;27.92;98072.38;4958592;29;1001;-77
2024/03/21 02:27:07;;;;;;;;;;;;;;;20.89;26.95;98078.53;4958801;28;1505;-78
2024/03/21 02:29:32;;;;;;;;;;;;;;;20.63;27.38;98085.19;4958930;28;1915;-76
2024/03/21 02:31:58;;;;;;;;;;;;;;;20.73;27.80;98084.16;4964827;28;972;-77
2024/03/21 02:34:24;;;;;;;;;;;;;;;20.77;27.62;98080.00;4981631;28;1231;-77
2024/03/21 02:36:49;;;;;;;;;;;;;;;20.87;27.25;98075.34;4997829;28;1439;-77
2024/03/21 02:39:15;;;;;;;;;;;;;;;20.87;27.37;98064.03;4997828;28;970;-78
2024/03/21 02:41:41;;;;;;;;;;;;;;;20.59;27.79;98065.47;5000171;28;927;-77
2024/03/21 02:44:06;;;;;;;;;;;;;;;20.42;27.68;98060.97;5017903;28;989;-77
2024/03/21 02:46:32;;;;;;;;;;;;;;;20.66;27.46;98070.16;5013648;28;1639;-77
2024/03/21 02:48:57;;;;;;;;;;;;;;;20.54;27.64;98068.81;4981611;28;1919;-77
2024/03/21 02:51:23;;;;;;;;;;;;;;;20.81;27.59;98066.59;5014661;28;1126;-78
2024/03/21 02:53:50;;;;;;;;;;;;;;;20.56;27.63;98060.69;4981251;28;992;-78
2024/03/21 02:56:16;;;;;;;;;;;;;;;20.83;27.37;98052.03;4998871;28;1494;-78
2024/03/21 02:58:42;;;;;;;;;;;;;;;20.79;27.41;98046.44;5000559;28;957;-77
2024/03/21 03:01:07;;;;;;;;;;;;;;;20.63;27.68;98054.09;5001860;28;1506;-78
2024/03/21 03:03:33;;;;;;;;;;;;;;;20.57;27.47;98048.13;5016815;28;1179;-78
2024/03/21 03:05:58;;;;;;;;;;;;;;;20.77;27.03;98057.38;5018105;28;1344;-78
2024/03/21 03:08:24;;;;;;;;;;;;;;;20.45;27.45;98077.03;5018301;28;1977;-77
2024/03/21 03:10:49;;;;;;;;;;;;;;;20.64;27.88;98079.09;5001531;28;1202;-77
2024/03/21 03:13:15;;;;;;;;;;;;;;;20.79;27.53;98085.22;5000112;28;908;-78
2024/03/21 03:15:40;;;;;;;;;;;;;;;21.00;27.03;98081.13;5008706;28;1470;-78
2024/03/21 03:18:06;;;;;;;;;;;;;;;20.32;27.93;98078.94;5016451;28;1033;-78
2024/03/21 03:20:31;;;;;;;;;;;;;;;20.60;27.39;98078.38;5017201;28;930;-77
2024/03/21 03:22:57;;;;;;;;;;;;;;;20.53;27.63;98079.31;5001184;28;929;-77
2024/03/21 03:25:22;;;;;;;;;;;;;;;20.57;27.31;98073.56;4983068;28;1434;-77
2024/03/21 03:27:49;;;;;;;;;;;;;;;20.59;27.62;98082.44;5000030;28;1976;-78
2024/03/21 03:30:15;;;;;;;;;;;;;;;20.77;27.66;98070.72;5000707;28;881;-78
2024/03/21 03:32:47;;;;;;;;;;;;;;;20.89;27.27;98083.41;5017417;28;998;-77
2024/03/21 03:35:34;;;;;;;;;;;;;;;21.11;26.80;98081.69;4999917;28;1378;-77
2024/03/21 03:37:59;;;;;;;;;;;;;;;19.45;27.12;97858.78;5016664;28;917;-78
2024/03/21 03:40:25;;;;;;;;;;;;;;;20.54;27.67;98082.94;5016804;28;987;-78
2024/03/21 03:42:50;;;;;;;;;;;;;;;20.14;27.98;98082.91;4981790;28;1010;-76
2024/03/21 03:45:16;;;;;;;;;;;;;;;20.52;27.91;98074.06;4973909;28;1507;-77
2024/03/21 03:47:41;;;;;;;;;;;;;;;20.56;27.63;98086.13;5015772;28;1987;-77
2024/03/21 03:50:07;;;;;;;;;;;;;;;20.87;27.32;98091.50;5017678;28;1058;-77
2024/03/21 03:52:32;;;;;;;;;;;;;;;21.04;27.23;98090.34;5018002;28;1162;-77
2024/03/21 03:54:58;;;;;;;;;;;;;;;20.72;27.55;98086.16;5012227;28;1562;-77
2024/03/21 03:57:25;;;;;;;;;;;;;;;20.58;27.42;98080.84;5017362;28;1254;-77
2024/03/21 03:59:50;;;;;;;;;;;;;;;20.51;27.37;98095.09;5017642;28;941;-78
2024/03/21 04:02:16;;;;;;;;;;;;;;;20.70;27.67;98102.00;5034158;28;929;-76
2024/03/21 04:04:41;;;;;;;;;;;;;;;20.66;27.58;98104.88;5029980;28;1349;-77
2024/03/21 04:07:07;;;;;;;;;;;;;;;20.87;27.54;98111.31;5021425;28;1197;-77
2024/03/21 04:09:32;;;;;;;;;;;;;;;20.64;27.77;98113.00;5019830;28;1907;-78
2024/03/21 04:11:58;;;;;;;;;;;;;;;20.72;27.28;98117.28;5038139;28;1091;-77
2024/03/21 04:14:23;;;;;;;;;;;;;;;20.41;27.85;98127.19;5035699;28;1499;-77
2024/03/21 04:16:49;;;;;;;;;;;;;;;20.52;27.56;98124.97;5018694;28;1412;-77
2024/03/21 04:19:15;;;;;;;;;;;;;;;20.59;27.39;98121.22;5037785;28;1365;-78
2024/03/21 04:21:40;;;;;;;;;;;;;;;21.00;27.12;98112.25;5039152;28;927;-78
2024/03/21 04:24:06;;;;;;;;;;;;;;;21.05;27.02;98114.56;5036472;28;1477;-78
2024/03/21 04:26:31;;;;;;;;;;;;;;;20.96;26.86;98123.63;5021357;28;1042;-78
2024/03/21 04:28:57;;;;;;;;;;;;;;;20.52;27.77;98122.13;5040226;28;1914;-78
2024/03/21 04:31:23;;;;;;;;;;;;;;;20.42;27.40;98128.78;5009073;28;1833;-77
2024/03/21 04:33:49;;;;;;;;;;;;;;;20.55;27.53;98121.28;5041696;28;1317;-77
2024/03/21 04:36:14;;;;;;;;;;;;;;;21.16;26.88;98129.25;5021200;28;1394;-77
2024/03/21 04:38:40;;;;;;;;;;;;;;;21.64;25.76;98129.78;5054415;28;957;-78
2024/03/21 04:41:05;;;;;;;;;;;;;;;21.32;26.16;98134.19;5055224;28;932;-78
2024/03/21 04:43:31;;;;;;;;;;;;;;;20.82;26.51;98129.59;5055204;28;1353;-76
2024/03/21 04:45:59;;;;;;;;;;;;;;;20.30;27.46;98128.19;5041181;28;1190;-77
2024/03/21 04:48:24;;;;;;;;;;;;;;;20.54;27.33;98114.03;5023984;28;1903;-77
2024/03/21 04:50:49;;;;;;;;;;;;;;;20.91;26.92;98120.53;5041316;28;969;-78
2024/03/21 04:53:15;;;;;;;;;;;;;;;20.73;27.28;98116.06;5041439;28;1083;-77
2024/03/21 04:55:41;;;;;;;;;;;;;;;20.78;26.93;98101.41;5040618;28;1514;-77
2024/03/21 04:58:06;;;;;;;;;;;;;;;20.91;26.74;98107.19;5023443;28;1288;-76
2024/03/21 05:00:32;;;;;;;;;;;;;;;20.68;26.88;98105.25;5041366;28;966;-77
2024/03/21 05:02:57;;;;;;;;;;;;;;;20.29;27.48;98097.53;5040391;28;1102;-77
2024/03/21 05:05:23;;;;;;;;;;;;;;;20.49;27.14;98111.72;5040162;28;926;-77
2024/03/21 05:07:48;;;;;;;;;;;;;;;20.79;27.32;98108.66;5023761;28;1906;-77
2024/03/21 05:10:15;;;;;;;;;;;;;;;20.86;26.75;98098.41;5039480;28;924;-77
2024/03/21 05:12:40;;;;;;;;;;;;;;;20.63;27.31;98094.47;4983430;28;927;-77
2024/03/21 05:15:06;;;;;;;;;;;;;;;20.51;27.27;98089.44;4983212;28;1156;-77
2024/03/21 05:17:31;;;;;;;;;;;;;;;20.63;27.08;98100.13;4960643;29;864;-78
2024/03/21 05:19:57;;;;;;;;;;;;;;;20.37;27.52;98098.22;4944649;29;880;-78
2024/03/21 05:22:22;;;;;;;;;;;;;;;20.57;27.19;98096.19;4929514;29;973;-78
2024/03/21 05:24:48;;;;;;;;;;;;;;;20.60;27.32;98092.50;4960498;29;909;-78
2024/03/21 05:27:15;;;;;;;;;;;;;;;20.78;26.94;98084.44;4961177;29;1207;-77
2024/03/21 05:29:43;;;;;;;;;;;;;;;20.87;26.76;98085.84;4944806;29;1915;-78
2024/03/21 05:32:09;;;;;;;;;;;;;;;20.77;26.91;98076.38;4944883;29;933;-78
2024/03/21 05:34:34;;;;;;;;;;;;;;;20.91;26.82;98086.59;4960411;29;957;-77
2024/03/21 05:37:00;;;;;;;;;;;;;;;20.69;27.33;98084.22;4945108;29;1565;-77
2024/03/21 05:39:26;;;;;;;;;;;;;;;20.75;26.75;98078.84;4943221;29;1012;-77
2024/03/21 05:41:52;;;;;;;;;;;;;;;20.42;27.26;98089.22;4945222;29;915;-77
2024/03/21 05:44:17;;;;;;;;;;;;;;;20.61;27.18;98082.78;4973661;28;969;-77
2024/03/21 05:46:43;;;;;;;;;;;;;;;20.78;27.06;98092.94;5015524;28;925;-78
2024/03/21 05:49:10;;;;;;;;;;;;;;;20.86;27.14;98119.00;5042686;28;1982;-77
2024/03/21 05:51:36;;;;;;;;;;;;;;;21.10;26.72;98116.88;5020289;28;1178;-78
2024/03/21 05:54:01;;;;;;;;;;;;;;;20.91;26.93;98117.69;5052414;28;869;-78
2024/03/21 05:56:27;;;;;;;;;;;;;;;21.04;26.97;98132.78;5053247;28;1103;-77
2024/03/21 05:58:53;;;;;;;;;;;;;;;20.84;26.84;98137.66;5020329;28;860;-77
2024/03/21 06:03:44;;;;;;;;;;;;;;;20.55;27.21;98143.88;5052063;28;1217;-77
2024/03/21 06:06:09;;;;;;;;;;;;;;;20.60;27.38;98149.03;5053293;28;948;-76
2024/03/21 06:08:35;;;;;;;;;;;;;;;20.80;27.18;98146.22;5035189;28;1977;-77
2024/03/21 06:11:00;;;;;;;;;;;;;;;20.90;27.19;98152.88;5036237;28;1074;-78
2024/03/21 06:13:26;;;;;;;;;;;;;;;20.76;26.99;98146.28;5035057;28;1115;-78
2024/03/21 06:15:51;;;;;;;;;;;;;;;20.86;26.94;98144.47;5021213;28;872;-77
2024/03/21 06:18:17;;;;;;;;;;;;;;;20.97;26.85;98135.75;5035233;28;1353;-78
2024/03/21 06:20:42;;;;;;;;;;;;;;;20.72;27.23;98136.28;5052143;28;864;-78
2024/03/21 06:23:08;;;;;;;;;;;;;;;20.59;27.30;98133.31;5051715;28;888;-77
2024/03/21 06:25:33;;;;;;;;;;;;;;;20.86;27.21;98129.53;5018939;28;1304;-78
2024/03/21 06:28:00;;;;;;;;;;;;;;;20.91;27.03;98120.53;5029767;28;1972;-78
2024/03/21 06:30:25;;;;;;;;;;;;;;;20.72;27.19;98131.41;5036929;28;1209;-77
2024/03/21 06:32:53;;;;;;;;;;;;;;;20.89;27.13;98135.13;5038814;28;1063;-78
2024/03/21 06:35:18;;;;;;;;;;;;;;;20.91;27.27;98131.84;5039928;28;910;-78
2024/03/21 06:37:44;;;;;;;;;;;;;;;20.87;27.23;98136.78;5038898;28;857;-79
2024/03/21 06:40:11;;;;;;;;;;;;;;;20.70;27.26;98139.53;5038448;28;957;-79
2024/03/21 06:42:36;;;;;;;;;;;;;;;20.61;27.41;98139.31;5040139;28;791;-79
2024/03/21 06:45:03;;;;;;;;;;;;;;;20.68;27.23;98150.50;5037844;28;860;-79
2024/03/21 06:47:28;;;;;;;;;;;;;;;20.62;27.27;98157.06;5021980;28;1888;-79
2024/03/21 06:49:56;;;;;;;;;;;;;;;20.60;27.44;98157.53;5021691;28;1166;-78
2024/03/21 06:52:22;;;;;;;;;;;;;;;20.46;27.58;98160.59;5038755;28;874;-79
2024/03/21 06:54:47;;;;;;;;;;;;;;;20.70;27.27;98152.88;5021622;28;1296;-79
2024/03/21 06:57:13;;;;;;;;;;;;;;;20.58;27.49;98157.16;5038606;28;834;-78
2024/03/21 06:59:39;;;;;;;;;;;;;;;21.00;26.92;98160.34;5021482;28;922;-77
2024/03/21 07:02:05;;;;;;;;;;;;;;;20.77;27.14;98150.69;5039817;28;975;-79
2024/03/21 07:04:31;;;;;;;;;;;;;;;20.86;27.15;98152.16;5038295;28;944;-78
2024/03/21 07:06:56;;;;;;;;;;;;;;;20.49;27.78;98145.63;5038900;28;1102;-79
2024/03/21 07:09:22;;;;;;;;;;;;;;;20.26;28.21;98138.78;5020875;28;1992;-78
2024/03/21 07:11:47;;;;;;;;;;;;;;;20.54;27.63;98131.78;5039797;28;872;-78
2024/03/21 07:14:13;;;;;;;;;;;;;;;20.51;27.69;98127.00;5037408;28;1147;-78
2024/03/21 07:16:38;;;;;;;;;;;;;;;20.69;27.67;98121.00;5038330;28;891;-79
2024/03/21 07:19:04;;;;;;;;;;;;;;;20.86;27.10;98129.53;5037839;28;963;-79
2024/03/21 07:21:29;;;;;;;;;;;;;;;20.99;26.93;98130.47;5038669;28;895;-79
2024/03/21 07:23:55;;;;;;;;;;;;;;;20.65;27.17;98137.22;5038002;28;998;-78
2024/03/21 07:26:21;;;;;;;;;;;;;;;20.77;27.24;98132.94;5037996;28;888;-79
2024/03/21 07:28:46;;;;;;;;;;;;;;;20.55;27.19;98149.53;5038489;28;1886;-79
2024/03/21 07:31:12;;;;;;;;;;;;;;;20.74;27.53;98139.47;5020893;28;1223;-79
2024/03/21 07:33:37;;;;;;;;;;;;;;;20.73;27.61;98144.34;5036672;28;932;-78
2024/03/21 07:36:03;;;;;;;;;;;;;;;20.77;27.40;98145.03;5071524;28;1264;-79
2024/03/21 07:38:28;;;;;;;;;;;;;;;20.89;27.07;98156.94;5035684;28;1130;-79
2024/03/21 07:40:57;;;;;;;;;;;;;;;20.73;27.15;98155.66;5004620;28;1314;-79
2024/03/21 07:43:23;;;;;;;;;;;;;;;20.50;27.50;98150.03;5002723;28;1135;-78
2024/03/21 07:45:49;;;;;;;;;;;;;;;20.64;27.37;98155.44;5016544;28;910;-78
2024/03/21 07:48:14;;;;;;;;;;;;;;;20.49;27.86;98145.63;5015743;28;1898;-79
2024/03/21 07:50:40;;;;;;;;;;;;;;;20.85;27.15;98150.56;4984405;28;1189;-79
2024/03/21 07:53:06;;;;;;;;;;;;;;;20.76;27.31;98154.75;4983493;28;985;-79
2024/03/21 07:55:31;;;;;;;;;;;;;;;20.66;27.43;98141.63;4984270;28;1171;-78
2024/03/21 07:57:57;;;;;;;;;;;;;;;20.91;27.03;98154.47;5000074;28;1021;-77
2024/03/21 08:00:23;;;;;;;;;;;;;;;20.94;26.94;98159.25;5016646;28;1255;-79
2024/03/21 08:02:49;;;;;;;;;;;;;;;20.51;27.56;98160.13;5000255;28;947;-78
2024/03/21 08:05:15;;;;;;;;;;;;;;;20.48;27.64;98156.16;5000073;28;1112;-79
2024/03/21 08:07:41;;;;;;;;;;;;;;;20.36;28.03;98164.41;5000433;28;1902;-78
2024/03/21 08:10:07;;;;;;;;;;;;;;;20.32;27.89;98169.38;4984778;28;1332;-79
2024/03/21 08:12:33;;;;;;;;;;;;;;;20.67;27.77;98179.19;4997386;28;907;-77
2024/03/21 08:14:58;;;;;;;;;;;;;;;20.70;27.33;98179.13;4996543;28;1134;-78
2024/03/21 08:17:24;;;;;;;;;;;;;;;20.62;27.44;98177.66;5011058;28;1187;-79
2024/03/21 08:19:51;;;;;;;;;;;;;;;20.55;27.52;98183.47;5036692;28;888;-78
2024/03/21 08:22:16;;;;;;;;;;;;;;;20.57;27.60;98192.28;5037780;28;902;-78
2024/03/21 08:24:42;;;;;;;;;;;;;;;20.71;27.46;98197.69;5037294;28;1106;-78
2024/03/21 08:27:07;;;;;;;;;;;;;;;20.55;27.79;98183.47;5038921;28;1040;-78
2024/03/21 08:29:33;;;;;;;;;;;;;;;20.48;27.64;98172.31;5037412;28;1906;-78
2024/03/21 08:31:58;;;;;;;;;;;;;;;20.44;27.68;98180.81;5039193;28;986;-76
2024/03/21 08:34:24;;;;;;;;;;;;;;;20.76;27.59;98177.38;5020204;28;1090;-78
2024/03/21 08:36:49;;;;;;;;;;;;;;;20.64;27.35;98175.22;5037531;28;895;-78
2024/03/21 08:39:15;;;;;;;;;;;;;;;20.74;27.34;98177.03;5037383;28;972;-78
2024/03/21 08:41:40;;;;;;;;;;;;;;;20.80;27.46;98178.13;5038479;28;969;-79
2024/03/21 08:44:06;;;;;;;;;;;;;;;20.92;27.19;98178.69;5037145;28;950;-78
2024/03/21 08:46:32;;;;;;;;;;;;;;;20.87;27.03;98173.53;5019968;28;949;-78
2024/03/21 08:48:57;;;;;;;;;;;;;;;20.55;27.74;98166.50;5019043;28;1910;-79
2024/03/21 08:51:23;;;;;;;;;;;;;;;20.80;27.16;98172.47;5019872;28;1229;-79
2024/03/21 08:53:48;;;;;;;;;;;;;;;20.67;27.39;98174.31;5034976;28;1139;-78
2024/03/21 08:56:14;;;;;;;;;;;;;;;20.55;27.66;98172.94;5020055;28;1002;-78
2024/03/21 08:58:39;;;;;;;;;;;;;;;20.67;27.59;98163.03;5018425;28;1252;-78
2024/03/21 09:01:05;;;;;;;;;;;;;;;20.55;27.60;98161.66;5036434;28;1023;-78
2024/03/21 09:03:33;;;;;;;;;;;;;;;21.00;27.02;98157.50;4985909;28;1466;-78
2024/03/21 09:05:59;;;;;;;;;;;;;;;20.96;27.07;98151.91;5004305;28;963;-78
2024/03/21 09:08:24;;;;;;;;;;;;;;;20.67;27.70;98136.78;5034615;28;1977;-78
2024/03/21 09:10:50;;;;;;;;;;;;;;;20.37;27.88;98152.69;5019568;28;931;-78
2024/03/21 09:13:15;;;;;;;;;;;;;;;20.65;27.41;98151.34;5002037;28;1126;-78
2024/03/21 09:15:41;;;;;;;;;;;;;;;20.54;27.53;98159.25;5021477;28;959;-78
2024/03/21 09:18:06;;;;;;;;;;;;;;;20.71;27.77;98158.09;5034179;28;1082;-78
2024/03/21 09:20:33;;;;;;;;;;;;;;;20.80;27.59;98172.47;5040121;28;939;-78
2024/03/21 09:22:59;;;;;;;;;;;;;;;20.97;27.23;98153.50;5039636;28;976;-77
2024/03/21 09:25:24;;;;;;;;;;;;;;;20.79;27.50;98164.41;5006425;28;1233;-78
2024/03/21 09:27:50;;;;;;;;;;;;;;;20.69;27.49;98160.56;5040472;28;1988;-78
2024/03/21 09:30:16;;;;;;;;;;;;;;;20.60;27.72;98168.81;5006168;28;1337;-78
2024/03/21 09:32:41;;;;;;;;;;;;;;;20.58;27.56;98170.50;5040184;28;1618;-79
2024/03/21 09:35:09;;;;;;;;;;;;;;;20.61;27.66;98169.63;5022885;28;1589;-78
2024/03/21 09:37:34;;;;;;;;;;;;;;;20.75;27.56;98163.69;4990972;28;1251;-78
2024/03/21 09:40:00;;;;;;;;;;;;;;;20.92;27.17;98161.72;5039486;28;946;-79
2024/03/21 09:42:26;;;;;;;;;;;;;;;21.11;26.92;98158.06;5023709;28;1067;-78
2024/03/21 09:44:56;;;;;;;;;;;;;;;20.55;27.66;98155.19;5038801;28;1015;-79
2024/03/21 09:47:27;;;;;;;;;;;;;;;20.30;27.88;98145.13;5024171;28;960;-78
2024/03/21 09:49:52;;;;;;;;;;;;;;;20.54;27.50;98134.63;5038967;28;1898;-78
2024/03/21 09:52:18;;;;;;;;;;;;;;;20.68;27.75;98136.38;5023479;28;898;-78
2024/03/21 09:54:43;;;;;;;;;;;;;;;20.54;27.81;98153.59;5039097;28;887;-78
2024/03/21 09:57:11;;;;;;;;;;;;;;;20.68;27.71;98147.66;5039696;28;850;-79
2024/03/21 09:59:36;;;;;;;;;;;;;;;20.74;27.56;98148.75;5001991;28;845;-77
2024/03/21 10:02:02;;;;;;;;;;;;;;;20.79;27.50;98159.56;5002865;28;1000;-78
2024/03/21 10:04:27;;;;;;;;;;;;;;;20.89;27.41;98162.59;5018344;28;985;-78
2024/03/21 10:06:53;;;;;;;;;;;;;;;20.68;27.88;98158.97;4986749;28;1003;-78
2024/03/21 10:09:18;;;;;;;;;;;;;;;20.92;27.33;98161.72;5001585;28;1898;-79
2024/03/21 10:11:45;;;;;;;;;;;;;;;20.66;27.66;98149.31;5018768;28;953;-78
2024/03/21 10:14:13;;;;;;;;;;;;;;;20.57;27.60;98147.06;5001533;28;944;-78
2024/03/21 10:16:39;;;;;;;;;;;;;;;20.90;27.12;98147.22;4986144;28;1342;-79
2024/03/21 10:19:05;;;;;;;;;;;;;;;20.60;27.58;98134.09;5001719;28;965;-78
2024/03/21 10:21:30;;;;;;;;;;;;;;;20.51;27.78;98137.50;5002818;28;1022;-78
2024/03/21 10:24:05;;;;;;;;;;;;;;;20.51;27.81;98137.50;5001429;28;935;-78
2024/03/21 10:26:30;;;;;;;;;;;;;;;20.46;28.13;98135.16;4985771;28;1247;-78
2024/03/21 10:28:56;;;;;;;;;;;;;;;20.66;27.78;98130.31;5001515;28;1981;-79
2024/03/21 10:31:22;;;;;;;;;;;;;;;20.79;27.48;98136.94;5001653;28;1027;-78
2024/03/21 10:33:49;;;;;;;;;;;;;;;20.72;27.75;98131.41;5017513;28;973;-78
2024/03/21 10:36:15;;;;;;;;;;;;;;;20.95;27.03;98136.19;5006640;28;987;-78
2024/03/21 10:38:41;;;;;;;;;;;;;;;20.60;27.74;98129.25;5001115;28;1013;-78
2024/03/21 10:41:07;;;;;;;;;;;;;;;20.59;27.61;98133.31;5002055;28;1245;-78
2024/03/21 10:43:33;;;;;;;;;;;;;;;20.36;28.20;98125.66;4978156;28;1027;-78
2024/03/21 10:45:59;;;;;;;;;;;;;;;20.72;27.63;98137.06;4963852;28;962;-79
2024/03/21 10:48:28;;;;;;;;;;;;;;;20.80;27.53;98141.34;4961856;28;1903;-79
2024/03/21 10:50:54;;;;;;;;;;;;;;;20.91;27.22;98149.59;4979645;28;1026;-79
2024/03/21 10:53:20;;;;;;;;;;;;;;;21.04;27.12;98149.75;4977630;28;981;-79
2024/03/21 10:55:45;;;;;;;;;;;;;;;20.98;27.11;98151.47;4946873;28;867;-78
2024/03/21 10:58:14;;;;;;;;;;;;;;;20.62;27.71;98155.03;4945834;28;1029;-78
2024/03/21 11:00:39;;;;;;;;;;;;;;;20.23;28.02;98150.13;4962952;28;977;-78
2024/03/21 11:03:05;;;;;;;;;;;;;;;20.65;27.43;98151.34;4962309;28;1070;-78
2024/03/21 11:05:30;;;;;;;;;;;;;;;20.68;27.56;98153.31;4962424;28;1147;-78
2024/03/21 11:07:56;;;;;;;;;;;;;;;20.70;27.24;98145.19;4975403;28;1918;-78
2024/03/21 11:10:22;;;;;;;;;;;;;;;21.00;27.18;98157.50;4955678;29;998;-77
2024/03/21 11:12:48;;;;;;;;;;;;;;;21.06;26.78;98150.09;4943063;29;1163;-78
2024/03/21 11:15:13;;;;;;;;;;;;;;;20.94;27.01;98145.13;4972997;28;880;-78
2024/03/21 11:17:39;;;;;;;;;;;;;;;20.80;27.41;98147.00;4981468;28;685;-78
2024/03/21 11:20:06;;;;;;;;;;;;;;;20.60;27.47;98137.72;4997387;28;940;-79
2024/03/21 11:22:31;;;;;;;;;;;;;;;20.49;27.71;98142.81;4965445;28;1089;-79
2024/03/21 11:24:57;;;;;;;;;;;;;;;20.79;27.07;98130.47;4948575;28;1244;-78
2024/03/21 11:27:24;;;;;;;;;;;;;;;20.71;27.27;98127.00;4997454;28;1206;-79
2024/03/21 11:29:50;;;;;;;;;;;;;;;20.90;27.17;98130.25;4964662;28;1977;-78
2024/03/21 11:32:22;;;;;;;;;;;;;;;20.80;27.51;98132.06;4981422;28;982;-78
2024/03/21 11:34:48;;;;;;;;;;;;;;;20.70;27.34;98121.78;4980343;28;1012;-79
2024/03/21 11:37:14;;;;;;;;;;;;;;;20.71;27.31;98117.72;4963600;28;1198;-78
2024/03/21 11:39:39;;;;;;;;;;;;;;;20.35;28.03;98118.41;4979947;28;999;-78
2024/03/21 11:42:11;;;;;;;;;;;;;;;20.46;27.64;98119.03;5026014;28;990;-78
2024/03/21 11:44:41;;;;;;;;;;;;;;;20.74;26.87;98117.66;5036076;28;1499;-78
2024/03/21 11:47:11;;;;;;;;;;;;;;;20.67;27.09;98114.16;5019787;28;1322;-78
2024/03/21 11:49:37;;;;;;;;;;;;;;;20.92;27.37;98105.16;5035805;28;1887;-78
2024/03/21 11:52:05;;;;;;;;;;;;;;;21.03;27.08;98111.34;5020094;28;1001;-78
2024/03/21 11:54:31;;;;;;;;;;;;;;;20.78;27.05;98115.56;5036297;28;986;-78
2024/03/21 11:56:59;;;;;;;;;;;;;;;21.00;27.06;98113.03;5018785;28;1287;-78
2024/03/21 11:59:30;;;;;;;;;;;;;;;20.83;27.13;98107.75;5037119;28;1100;-77
2024/03/21 12:01:57;;;;;;;;;;;;;;;20.60;27.26;98105.84;5037489;28;926;-78
2024/03/21 12:04:23;;;;;;;;;;;;;;;20.54;27.16;98102.72;5019311;28;1106;-78
2024/03/21 12:06:49;;;;;;;;;;;;;;;20.58;27.60;98103.47;5015100;28;964;-78
2024/03/21 12:09:15;;;;;;;;;;;;;;;20.76;27.19;98112.34;4998375;28;1906;-78
2024/03/21 12:11:40;;;;;;;;;;;;;;;20.96;27.01;98111.53;4999437;28;980;-79
2024/03/21 12:14:06;;;;;;;;;;;;;;;20.45;27.50;98110.94;4999047;28;911;-78
2024/03/21 12:16:31;;;;;;;;;;;;;;;20.54;27.37;98108.38;4979136;28;1210;-78
2024/03/21 12:18:57;;;;;;;;;;;;;;;20.67;27.08;98106.47;4995058;28;846;-78
2024/03/21 12:21:22;;;;;;;;;;;;;;;20.71;27.33;98109.22;4979352;28;1107;-78
2024/03/21 12:23:48;;;;;;;;;;;;;;;20.66;27.43;98110.53;4978893;28;1077;-78
2024/03/21 12:26:14;;;;;;;;;;;;;;;20.57;27.69;98104.66;4956446;29;1015;-78
2024/03/21 12:28:40;;;;;;;;;;;;;;;20.90;27.19;98113.28;4956189;29;1981;-78
2024/03/21 12:31:08;;;;;;;;;;;;;;;20.74;27.32;98097.06;4940941;29;1054;-77
2024/03/21 12:33:33;;;;;;;;;;;;;;;20.80;27.25;98093.28;4940279;29;936;-78
2024/03/21 12:35:59;;;;;;;;;;;;;;;20.88;27.36;98087.44;4957170;29;915;-78
2024/03/21 12:38:25;;;;;;;;;;;;;;;20.80;27.39;98087.63;4985542;28;1078;-78
2024/03/21 12:40:50;;;;;;;;;;;;;;;20.80;27.20;98093.28;4995420;28;1005;-78
2024/03/21 12:43:16;;;;;;;;;;;;;;;20.68;27.47;98079.81;4978999;28;854;-78
2024/03/21 12:45:41;;;;;;;;;;;;;;;20.74;27.76;98082.94;4995188;28;1270;-79
2024/03/21 12:48:08;;;;;;;;;;;;;;;20.76;27.47;98084.06;4978765;28;1967;-77
2024/03/21 12:50:34;;;;;;;;;;;;;;;20.42;28.01;98075.09;4978538;28;1259;-78
2024/03/21 12:52:59;;;;;;;;;;;;;;;20.55;27.86;98064.75;4981653;28;1227;-78
2024/03/21 12:55:25;;;;;;;;;;;;;;;20.62;27.93;98063.78;4982566;28;1277;-78
2024/03/21 12:57:52;;;;;;;;;;;;;;;20.87;27.84;98054.75;5014185;28;988;-78